Time;durP1;ratioP1;P1;durP2;ratioP2;P2;SDS_P1;SDS_P2;PMS_P1;PMS_P2;Temp;Humidity;BMP_temperature;BMP_pressure;BME280_temperature;BME280_humidity;BME280_pressure;Samples;Min_cycle;Max_cycle;Signal;HPM_P1;HPM_P2
2023/05/13 00:01:12;;;;;;;4.63;3.60;;;;;;;16.24;69.15;101991.06;4987274;28;20477;-72
2023/05/13 00:03:39;;;;;;;5.68;3.70;;;;;;;16.22;69.06;101996.50;4988021;28;20136;-72
2023/05/13 00:06:06;;;;;;;7.15;3.90;;;;;;;16.20;68.64;101999.28;4979031;28;20046;-72
2023/05/13 00:08:33;;;;;;;9.45;4.05;;;;;;;16.16;68.85;101991.81;5001788;28;20062;-73
2023/05/13 00:10:59;;;;;;;5.90;3.90;;;;;;;16.14;69.67;101994.63;4999423;28;20069;-73
2023/05/13 00:13:26;;;;;;;7.60;3.78;;;;;;;16.09;68.87;101999.56;5007548;28;20060;-73
2023/05/13 00:15:52;;;;;;;7.88;3.95;;;;;;;16.04;70.30;101988.59;4984298;28;20062;-73
2023/05/13 00:18:19;;;;;;;8.07;3.95;;;;;;;16.02;69.02;101990.56;5004312;28;20045;-72
2023/05/13 00:20:45;;;;;;;6.45;3.60;;;;;;;16.01;70.55;101996.81;4995561;28;20046;-72
2023/05/13 00:23:13;;;;;;;6.63;3.85;;;;;;;15.99;69.69;101989.06;4979335;28;20047;-73
2023/05/13 00:25:40;;;;;;;6.43;4.10;;;;;;;15.94;69.00;101986.03;4990745;28;20900;-73
2023/05/13 00:28:07;;;;;;;6.53;3.50;;;;;;;15.88;68.23;101994.59;5009864;28;20053;-73
2023/05/13 00:30:33;;;;;;;6.55;3.92;;;;;;;15.86;69.34;101990.41;5006833;28;20041;-73
2023/05/13 00:33:00;;;;;;;7.00;3.47;;;;;;;15.81;70.59;101985.59;5003648;28;20064;-73
2023/05/13 00:35:26;;;;;;;9.38;4.65;;;;;;;15.76;69.86;101980.78;4994759;28;20084;-74
2023/05/13 00:37:53;;;;;;;5.90;3.67;;;;;;;15.76;70.65;101986.06;5006485;28;20057;-72
2023/05/13 00:40:22;;;;;;;8.27;3.80;;;;;;;15.72;70.37;101978.53;4981676;28;20427;-73
2023/05/13 00:42:49;;;;;;;6.25;3.97;;;;;;;15.69;70.05;101984.97;5012791;28;20135;-73
2023/05/13 00:45:16;;;;;;;5.78;3.97;;;;;;;15.70;70.25;101983.13;4979598;28;20064;-72
2023/05/13 00:47:43;;;;;;;6.30;3.63;;;;;;;15.67;70.36;101991.41;4990032;28;20081;-72
2023/05/13 00:50:12;;;;;;;6.50;4.20;;;;;;;15.61;70.79;101987.53;4993372;28;20080;-72
2023/05/13 00:52:40;;;;;;;8.15;4.15;;;;;;;15.58;72.00;101987.81;4999593;28;20089;-72
2023/05/13 00:55:08;;;;;;;6.13;3.95;;;;;;;15.47;70.87;101978.31;5009672;28;20137;-72
2023/05/13 00:57:36;;;;;;;6.53;4.10;;;;;;;15.48;71.85;101982.59;4982715;28;20914;-72
2023/05/13 01:00:07;;;;;;;5.55;4.13;;;;;;;15.43;72.91;101992.81;4989445;28;20077;-72
2023/05/13 01:02:52;;;;;;;7.05;4.10;;;;;;;15.45;73.04;101992.69;4984958;28;20049;-72
2023/05/13 01:06:03;;;;;;;8.02;4.32;;;;;;;15.40;73.01;101999.22;4996846;28;20448;-72
2023/05/13 01:08:46;;;;;;;5.60;4.30;;;;;;;15.32;73.63;101995.66;4955676;28;20094;-72
2023/05/13 01:11:16;;;;;;;8.57;4.55;;;;;;;15.22;74.08;101991.28;5000783;28;20046;-73
2023/05/13 01:13:46;;;;;;;5.90;3.83;;;;;;;15.18;74.39;101997.84;5001420;28;20137;-73
2023/05/13 01:16:28;;;;;;;8.40;4.78;;;;;;;15.16;74.73;101997.16;4990401;28;20275;-72
2023/05/13 01:19:04;;;;;;;7.18;4.57;;;;;;;15.13;75.79;102000.09;5002385;28;20407;-72
2023/05/13 01:21:35;;;;;;;10.75;5.07;;;;;;;15.10;76.53;101991.63;4999388;28;20222;-72
2023/05/13 01:24:01;;;;;;;7.22;4.45;;;;;;;15.05;77.13;101988.59;4984424;28;20427;-73
2023/05/13 01:26:29;;;;;;;5.72;4.28;;;;;;;15.04;76.82;101987.78;4996506;28;20046;-72
2023/05/13 01:28:55;;;;;;;10.75;4.55;;;;;;;14.99;77.73;101982.94;5001811;28;20093;-72
2023/05/13 01:31:22;;;;;;;10.60;4.75;;;;;;;14.99;78.23;101987.38;5001443;28;20045;-72
2023/05/13 01:33:49;;;;;;;9.38;4.95;;;;;;;14.95;78.10;101991.28;4991685;28;20149;-72
2023/05/13 01:36:16;;;;;;;8.50;5.00;;;;;;;14.93;79.42;101987.97;4988649;28;20049;-72
2023/05/13 01:38:44;;;;;;;8.15;4.70;;;;;;;14.86;77.64;101982.44;4999296;28;20117;-72
2023/05/13 01:41:10;;;;;;;9.48;4.57;;;;;;;14.79;78.65;101984.00;5007366;28;20056;-71
2023/05/13 01:43:37;;;;;;;9.43;5.45;;;;;;;14.80;77.92;101990.94;4998823;28;20586;-72
2023/05/13 01:46:10;;;;;;;7.05;5.10;;;;;;;14.78;79.64;101990.28;4989034;28;20062;-73
2023/05/13 01:48:37;;;;;;;7.88;4.65;;;;;;;14.74;78.69;101988.88;5000352;28;20073;-72
2023/05/13 01:51:04;;;;;;;8.68;5.22;;;;;;;14.71;80.08;101986.53;5016543;28;20064;-72
2023/05/13 01:53:30;;;;;;;10.13;5.20;;;;;;;14.64;80.41;101986.25;5026136;28;20299;-72
2023/05/13 01:55:57;;;;;;;8.73;5.45;;;;;;;14.62;82.57;101990.84;5013659;28;20054;-73
2023/05/13 01:58:23;;;;;;;6.57;4.75;;;;;;;14.59;81.69;101993.81;4989308;28;20548;-71
2023/05/13 02:00:49;;;;;;;8.23;5.05;;;;;;;14.57;81.45;101988.66;4988854;28;20082;-72
2023/05/13 02:03:16;;;;;;;10.52;5.50;;;;;;;14.57;80.95;101993.94;5003009;28;20082;-72
2023/05/13 02:05:43;;;;;;;8.98;5.10;;;;;;;14.53;81.78;101987.25;5006677;28;20145;-71
2023/05/13 02:08:09;;;;;;;8.52;5.13;;;;;;;14.49;81.79;101988.53;4991295;28;20046;-71
2023/05/13 02:10:35;;;;;;;9.40;5.43;;;;;;;14.46;82.99;101988.78;5000489;28;20423;-72
2023/05/13 02:13:02;;;;;;;12.38;5.47;;;;;;;14.42;82.55;101990.88;4998388;28;20058;-74
2023/05/13 02:15:29;;;;;;;10.07;5.43;;;;;;;14.40;83.79;101995.47;5001152;28;20049;-73
2023/05/13 02:17:56;;;;;;;6.82;5.13;;;;;;;14.30;82.52;101986.75;4988394;28;20089;-74
2023/05/13 02:20:23;;;;;;;8.70;5.50;;;;;;;14.29;85.21;101989.53;4983433;28;20499;-73
2023/05/13 02:22:50;;;;;;;20.17;5.93;;;;;;;14.25;82.95;101989.00;4989263;28;20100;-71
2023/05/13 02:25:16;;;;;;;8.50;5.70;;;;;;;14.25;85.06;102002.19;4973827;28;20062;-74
2023/05/13 02:27:43;;;;;;;8.40;5.38;;;;;;;14.22;84.33;101997.19;4990327;28;20461;-74
2023/05/13 02:30:10;;;;;;;8.85;5.47;;;;;;;14.21;84.21;101998.16;5000183;28;20306;-71
2023/05/13 02:32:36;;;;;;;8.88;5.32;;;;;;;14.13;84.95;101990.97;5004028;28;20058;-73
2023/05/13 02:35:03;;;;;;;7.53;5.70;;;;;;;14.11;86.08;101992.06;5003113;28;20046;-73
2023/05/13 02:37:29;;;;;;;9.73;5.68;;;;;;;14.08;85.00;101992.34;5013446;28;20046;-73
2023/05/13 02:39:56;;;;;;;8.57;5.57;;;;;;;14.07;86.02;101988.03;5010444;28;20081;-73
2023/05/13 02:42:23;;;;;;;9.13;5.30;;;;;;;14.03;86.83;101990.97;4996807;28;20050;-72
2023/05/13 02:44:49;;;;;;;10.00;5.80;;;;;;;14.02;86.24;101993.75;5002218;28;20145;-72
2023/05/13 02:47:16;;;;;;;7.07;5.60;;;;;;;13.99;88.33;101997.47;5003241;28;20515;-74
2023/05/13 02:49:42;;;;;;;8.68;5.55;;;;;;;13.92;86.35;101983.22;5002237;28;20377;-72
2023/05/13 02:52:09;;;;;;;11.55;5.90;;;;;;;13.92;86.38;101985.03;4993056;28;20096;-72
2023/05/13 02:54:35;;;;;;;10.35;6.25;;;;;;;13.91;87.36;101980.69;4974542;28;20161;-72
2023/05/13 02:57:02;;;;;;;12.50;5.93;;;;;;;13.88;87.26;101976.56;5003773;28;20515;-72
2023/05/13 02:59:28;;;;;;;8.70;5.72;;;;;;;13.84;88.17;101975.16;4998127;28;20056;-71
2023/05/13 03:01:56;;;;;;;8.27;5.93;;;;;;;13.82;88.54;101980.56;5003889;28;20137;-72
2023/05/13 03:04:23;;;;;;;10.10;5.93;;;;;;;13.83;87.75;101978.75;4997882;28;20057;-72
2023/05/13 03:06:49;;;;;;;8.00;6.00;;;;;;;13.78;87.96;101978.34;4992586;28;20049;-72
2023/05/13 03:09:16;;;;;;;9.20;6.05;;;;;;;13.78;90.32;101986.25;4991054;28;20102;-72
2023/05/13 03:11:43;;;;;;;8.55;5.30;;;;;;;13.77;87.66;101984.59;4997326;28;20057;-72
2023/05/13 03:14:09;;;;;;;8.60;6.05;;;;;;;13.76;89.34;101989.03;5003217;28;20049;-73
2023/05/13 03:16:36;;;;;;;10.15;6.30;;;;;;;13.69;90.13;101985.28;5004106;28;20467;-72
2023/05/13 03:19:03;;;;;;;9.18;5.88;;;;;;;13.68;89.79;101988.06;4991023;28;20064;-72
2023/05/13 03:21:29;;;;;;;9.93;6.03;;;;;;;13.65;90.82;101981.25;5005722;28;20046;-73
2023/05/13 03:23:56;;;;;;;10.20;6.32;;;;;;;13.63;91.56;101988.47;5001666;28;20065;-73
2023/05/13 03:26:23;;;;;;;10.10;5.80;;;;;;;13.58;91.12;101988.03;4989844;28;20154;-74
2023/05/13 03:28:49;;;;;;;12.75;6.68;;;;;;;13.55;92.63;101983.91;4994732;28;20058;-74
2023/05/13 03:31:16;;;;;;;7.28;5.82;;;;;;;13.55;92.46;101983.06;5005850;28;20050;-74
2023/05/13 03:33:43;;;;;;;9.82;6.63;;;;;;;13.52;91.68;101984.16;5006196;28;20049;-74
2023/05/13 03:36:09;;;;;;;9.23;7.03;;;;;;;13.52;91.60;101991.25;4982020;28;20050;-71
2023/05/13 03:38:36;;;;;;;8.90;5.95;;;;;;;13.50;92.62;101991.38;5007234;28;20065;-73
2023/05/13 03:41:02;;;;;;;11.95;7.03;;;;;;;13.45;92.20;101991.78;4983810;28;20050;-72
2023/05/13 03:43:28;;;;;;;10.10;6.50;;;;;;;13.43;92.08;101992.91;4999856;28;20054;-72
2023/05/13 03:45:55;;;;;;;10.18;6.88;;;;;;;13.38;94.82;101995.94;4988661;28;20057;-72
2023/05/13 03:48:21;;;;;;;13.43;7.05;;;;;;;13.35;94.30;101996.22;5006851;28;20054;-74
2023/05/13 03:50:48;;;;;;;9.52;6.90;;;;;;;13.35;94.07;101996.22;4981261;28;20507;-71
2023/05/13 03:53:16;;;;;;;11.88;6.65;;;;;;;13.31;94.66;102001.88;4978744;28;20052;-72
2023/05/13 03:55:42;;;;;;;10.68;6.57;;;;;;;13.31;94.00;102000.09;5013545;28;20449;-72
2023/05/13 03:58:14;;;;;;;10.65;6.60;;;;;;;13.32;95.08;102003.56;4984679;28;20136;-72
2023/05/13 04:00:45;;;;;;;10.02;7.07;;;;;;;13.29;95.95;102003.78;5004949;28;20060;-71
2023/05/13 04:03:12;;;;;;;12.18;7.28;;;;;;;13.25;96.35;102001.44;4982175;28;20092;-72
2023/05/13 04:05:39;;;;;;;11.30;7.30;;;;;;;13.21;95.66;102005.31;4981331;28;20495;-71
2023/05/13 04:08:05;;;;;;;9.32;7.20;;;;;;;13.22;96.27;102006.13;5003247;28;20057;-72
2023/05/13 04:10:32;;;;;;;9.38;7.10;;;;;;;13.22;95.43;102006.13;4998433;28;20073;-73
2023/05/13 04:12:59;;;;;;;9.52;6.82;;;;;;;13.18;95.84;101996.84;5000227;28;20050;-72
2023/05/13 04:15:25;;;;;;;11.63;7.10;;;;;;;13.25;95.72;102011.16;4982824;28;20049;-72
2023/05/13 04:17:52;;;;;;;9.57;7.30;;;;;;;13.21;96.38;102007.94;5005799;28;20064;-73
2023/05/13 04:20:19;;;;;;;11.38;7.80;;;;;;;13.16;98.18;102007.50;4990030;28;20058;-72
2023/05/13 04:22:47;;;;;;;14.07;7.60;;;;;;;13.19;97.20;102012.53;4987167;28;20541;-72
2023/05/13 04:25:13;;;;;;;9.02;7.78;;;;;;;13.15;97.81;102011.13;5013524;28;20053;-72
2023/05/13 04:27:40;;;;;;;10.50;7.10;;;;;;;13.14;97.96;102013.88;4995803;28;20061;-72
2023/05/13 04:30:07;;;;;;;10.30;8.18;;;;;;;13.14;99.75;102011.25;4989619;28;20069;-72
2023/05/13 04:32:33;;;;;;;10.73;7.80;;;;;;;13.07;100.00;102008.28;4994684;28;20054;-74
2023/05/13 04:35:00;;;;;;;12.98;7.90;;;;;;;13.06;100.00;102011.91;4980114;28;20054;-72
2023/05/13 04:37:27;;;;;;;10.70;7.80;;;;;;;13.01;100.00;102014.94;4988407;28;20056;-72
2023/05/13 04:39:54;;;;;;;9.70;7.43;;;;;;;12.95;100.00;102015.47;5002289;28;20054;-72
2023/05/13 04:42:20;;;;;;;11.32;7.63;;;;;;;12.98;100.00;102019.66;5003788;28;20081;-73
2023/05/13 04:44:47;;;;;;;9.05;7.55;;;;;;;12.91;100.00;102021.97;4984009;28;20160;-72
2023/05/13 04:47:14;;;;;;;11.80;7.25;;;;;;;12.93;100.00;102025.28;4984992;28;20776;-72
2023/05/13 04:49:41;;;;;;;9.02;7.60;;;;;;;12.89;100.00;102012.53;4993312;28;20065;-73
2023/05/13 04:52:09;;;;;;;14.98;8.63;;;;;;;12.93;100.00;102021.84;4988536;28;20056;-74
2023/05/13 04:54:37;;;;;;;12.70;8.55;;;;;;;12.94;100.00;102028.78;5010691;28;20100;-72
2023/05/13 04:57:04;;;;;;;9.90;8.10;;;;;;;12.91;100.00;102014.06;4995573;28;20054;-73
2023/05/13 04:59:31;;;;;;;10.30;8.18;;;;;;;12.93;100.00;102017.41;4991260;28;20519;-73
2023/05/13 05:01:57;;;;;;;8.63;7.32;;;;;;;12.95;100.00;102022.53;4994080;28;20062;-72
2023/05/13 05:04:24;;;;;;;9.68;7.85;;;;;;;12.93;100.00;102022.66;4987729;28;20050;-72
2023/05/13 05:06:51;;;;;;;10.45;8.40;;;;;;;12.95;100.00;102025.16;5004758;28;20057;-72
2023/05/13 05:09:18;;;;;;;10.85;8.10;;;;;;;12.98;100.00;102031.00;4980916;28;20060;-72
2023/05/13 05:11:44;;;;;;;10.63;7.70;;;;;;;12.97;100.00;102029.34;4984375;28;20064;-72
2023/05/13 05:14:10;;;;;;;12.32;8.23;;;;;;;13.00;100.00;102028.25;4982205;28;20456;-72
2023/05/13 05:16:37;;;;;;;16.27;8.25;;;;;;;13.01;100.00;102038.63;4985240;28;20136;-72
2023/05/13 05:19:04;;;;;;;9.13;7.15;;;;;;;13.04;100.00;102030.47;4999299;28;20054;-72
2023/05/13 05:21:30;;;;;;;10.68;8.10;;;;;;;13.14;100.00;102041.06;5006584;28;20046;-72
2023/05/13 05:23:58;;;;;;;13.20;7.75;;;;;;;13.15;100.00;102042.72;4990484;28;20141;-73
2023/05/13 05:26:25;;;;;;;10.70;7.93;;;;;;;13.21;100.00;102047.47;4991121;28;20045;-72
2023/05/13 05:28:51;;;;;;;11.13;8.68;;;;;;;13.22;100.00;102038.56;4992031;28;20291;-72
2023/05/13 05:31:18;;;;;;;11.95;7.47;;;;;;;13.25;100.00;102048.88;4994092;28;20049;-72
2023/05/13 05:33:44;;;;;;;12.13;7.68;;;;;;;13.31;100.00;102044.91;4987106;28;20062;-72
2023/05/13 05:36:11;;;;;;;10.73;7.35;;;;;;;13.35;100.00;102051.56;5004305;28;20522;-73
2023/05/13 05:38:38;;;;;;;11.38;8.15;;;;;;;13.35;100.00;102048.91;5009372;28;20053;-74
2023/05/13 05:41:04;;;;;;;9.30;6.97;;;;;;;13.36;100.00;102055.03;5007083;28;20538;-72
2023/05/13 05:43:31;;;;;;;13.95;8.63;;;;;;;13.35;100.00;102051.56;4978920;28;20431;-72
2023/05/13 05:45:57;;;;;;;10.57;8.43;;;;;;;13.38;100.00;102056.53;4999969;28;20513;-73
2023/05/13 05:48:24;;;;;;;10.52;8.20;;;;;;;13.39;100.00;102045.03;4984594;28;20158;-73
2023/05/13 05:50:51;;;;;;;11.52;8.27;;;;;;;13.48;100.00;102055.75;5006198;28;20784;-73
2023/05/13 05:53:17;;;;;;;11.82;8.32;;;;;;;13.53;100.00;102054.38;4983821;28;20164;-73
2023/05/13 05:55:44;;;;;;;11.05;8.98;;;;;;;13.60;100.00;102047.59;4998876;28;20060;-74
2023/05/13 05:58:13;;;;;;;14.20;8.05;;;;;;;13.63;100.00;102054.41;4983009;28;20054;-73
2023/05/13 06:00:40;;;;;;;10.40;8.00;;;;;;;13.65;100.00;102055.09;4997790;28;20084;-72
2023/05/13 06:03:06;;;;;;;11.63;8.13;;;;;;;13.72;100.00;102060.63;4989378;28;20058;-72
2023/05/13 06:05:34;;;;;;;11.23;7.55;;;;;;;13.75;100.00;102063.84;4998653;28;20084;-72
2023/05/13 06:08:00;;;;;;;11.48;7.93;;;;;;;13.79;100.00;102067.03;5010777;28;20151;-74
2023/05/13 06:10:27;;;;;;;11.45;7.97;;;;;;;13.82;100.00;102056.22;4996925;28;20050;-73
2023/05/13 06:12:54;;;;;;;10.18;8.52;;;;;;;13.87;100.00;102067.19;4985736;28;20053;-73
2023/05/13 06:15:20;;;;;;;13.93;8.52;;;;;;;13.89;100.00;102062.59;4986850;28;20155;-73
2023/05/13 06:17:47;;;;;;;13.75;8.45;;;;;;;13.94;100.00;102070.13;5003736;28;20062;-72
2023/05/13 06:20:13;;;;;;;10.60;7.65;;;;;;;13.97;100.00;102067.19;4992895;28;20112;-72
2023/05/13 06:22:40;;;;;;;10.75;7.63;;;;;;;14.00;100.00;102066.94;4993436;28;20489;-73
2023/05/13 06:25:07;;;;;;;10.48;8.27;;;;;;;14.13;100.00;102071.91;4993843;28;20061;-73
2023/05/13 06:27:35;;;;;;;15.65;8.55;;;;;;;14.22;100.00;102066.63;5004108;28;20107;-72
2023/05/13 06:30:02;;;;;;;12.40;7.07;;;;;;;14.29;98.75;102064.28;4998201;28;20528;-73
2023/05/13 06:32:28;;;;;;;10.55;7.50;;;;;;;14.34;98.60;102071.75;5003517;28;20128;-73
2023/05/13 06:34:55;;;;;;;11.13;7.82;;;;;;;14.39;99.03;102066.91;5005762;28;20108;-73
2023/05/13 06:37:22;;;;;;;10.25;7.80;;;;;;;14.44;99.50;102068.16;5014441;28;20068;-73
2023/05/13 06:39:49;;;;;;;12.27;8.00;;;;;;;14.52;99.79;102070.06;5010206;28;20068;-74
2023/05/13 06:42:15;;;;;;;14.27;7.43;;;;;;;14.60;97.49;102064.97;4987125;28;20446;-73
2023/05/13 06:44:42;;;;;;;9.35;7.50;;;;;;;14.62;98.68;102073.56;5006556;28;20066;-72
2023/05/13 06:47:14;;;;;;;11.50;8.18;;;;;;;14.62;97.04;102073.56;5005327;28;20144;-73
2023/05/13 06:49:42;;;;;;;10.05;7.85;;;;;;;14.67;96.33;102072.31;4990306;28;20077;-74
2023/05/13 06:52:09;;;;;;;9.32;7.43;;;;;;;14.72;97.30;102077.97;5004809;28;20046;-74
2023/05/13 06:54:35;;;;;;;12.23;7.90;;;;;;;14.70;95.54;102070.22;5002074;28;20157;-74
2023/05/13 06:57:04;;;;;;;9.88;6.75;;;;;;;14.75;95.81;102069.78;5001221;28;20454;-72
2023/05/13 06:59:31;;;;;;;8.27;7.22;;;;;;;14.82;94.08;102066.41;4995903;28;20057;-72
2023/05/13 07:01:57;;;;;;;9.95;7.38;;;;;;;14.86;93.61;102082.81;5012640;28;20056;-72
2023/05/13 07:04:24;;;;;;;10.07;6.68;;;;;;;14.88;93.87;102072.94;4984031;28;20054;-72
2023/05/13 07:06:51;;;;;;;9.57;7.10;;;;;;;14.91;93.01;102077.91;4989133;28;20042;-71
2023/05/13 07:09:17;;;;;;;9.70;6.65;;;;;;;14.96;93.06;102078.34;5000294;28;20053;-74
2023/05/13 07:11:44;;;;;;;8.75;7.13;;;;;;;15.05;93.69;102078.44;5004793;28;20062;-73
2023/05/13 07:14:11;;;;;;;8.20;6.53;;;;;;;15.11;93.42;102076.06;4996057;28;20050;-72
2023/05/13 07:16:37;;;;;;;11.00;7.00;;;;;;;15.15;94.18;102073.94;5002738;28;20057;-73
2023/05/13 07:19:04;;;;;;;9.43;7.15;;;;;;;15.25;94.14;102072.09;4994365;28;20045;-72
2023/05/13 07:21:31;;;;;;;8.50;6.53;;;;;;;15.36;93.21;102085.09;5006369;28;20095;-72
2023/05/13 07:23:57;;;;;;;12.32;7.78;;;;;;;15.42;91.41;102079.22;4987486;28;20064;-72
2023/05/13 07:26:24;;;;;;;7.95;6.38;;;;;;;15.47;91.83;102075.31;4990048;28;20058;-73
2023/05/13 07:28:51;;;;;;;8.13;6.05;;;;;;;15.54;90.31;102074.59;5002496;28;20087;-72
2023/05/13 07:31:17;;;;;;;8.07;5.38;;;;;;;15.63;91.08;102078.97;5008494;28;20062;-71
2023/05/13 07:33:44;;;;;;;9.80;5.85;;;;;;;15.69;88.78;102080.19;4985459;28;20400;-71
2023/05/13 07:36:10;;;;;;;9.25;6.40;;;;;;;15.73;90.25;102081.59;5006375;28;20053;-72
2023/05/13 07:38:37;;;;;;;8.60;6.88;;;;;;;15.75;90.14;102076.97;4989001;28;20093;-72
2023/05/13 07:41:03;;;;;;;8.30;6.13;;;;;;;15.80;88.65;102082.66;4985789;28;20076;-72
2023/05/13 07:43:33;;;;;;;9.15;6.32;;;;;;;15.80;87.93;102080.00;5005945;28;20049;-72
2023/05/13 07:46:01;;;;;;;8.48;6.25;;;;;;;15.86;88.49;102075.06;5003738;28;20073;-72
2023/05/13 07:48:28;;;;;;;9.50;5.57;;;;;;;15.96;87.99;102081.16;5006838;28;20045;-73
2023/05/13 07:50:56;;;;;;;9.38;6.10;;;;;;;16.08;87.79;102082.59;4985761;28;20095;-72
2023/05/13 07:53:23;;;;;;;9.45;5.90;;;;;;;16.10;87.59;102071.84;5007086;28;20076;-72
2023/05/13 07:55:49;;;;;;;8.13;6.32;;;;;;;16.13;87.84;102074.19;5008227;28;20046;-72
2023/05/13 07:58:17;;;;;;;8.05;6.03;;;;;;;16.21;88.54;102076.91;4987014;28;20108;-73
2023/05/13 08:00:43;;;;;;;11.02;5.70;;;;;;;16.31;87.17;102080.31;4992585;28;20058;-73
2023/05/13 08:03:11;;;;;;;10.98;5.60;;;;;;;16.37;84.40;102065.63;4998977;28;20141;-73
2023/05/13 08:05:38;;;;;;;6.90;5.27;;;;;;;16.47;80.46;102076.13;5019761;28;20050;-73
2023/05/13 08:08:04;;;;;;;5.45;4.43;;;;;;;16.58;81.54;102075.84;5018956;28;20073;-75
2023/05/13 08:10:31;;;;;;;10.90;6.40;;;;;;;16.63;80.53;102067.44;5027194;28;20146;-73
2023/05/13 08:12:59;;;;;;;7.28;4.45;;;;;;;16.73;80.74;102065.50;5020888;28;20511;-74
2023/05/13 08:15:27;;;;;;;6.40;4.15;;;;;;;16.86;78.61;102073.09;5003869;28;20105;-73
2023/05/13 08:17:53;;;;;;;8.40;5.22;;;;;;;16.99;75.24;102061.06;5008844;28;20054;-73
2023/05/13 08:20:21;;;;;;;10.60;4.72;;;;;;;17.24;75.42;102066.44;4995985;28;20054;-73
2023/05/13 08:22:48;;;;;;;6.30;4.38;;;;;;;17.58;72.91;102074.38;5005125;28;20085;-73
2023/05/13 08:25:14;;;;;;;6.60;4.57;;;;;;;17.94;71.34;102067.97;5009792;28;20054;-73
2023/05/13 08:27:41;;;;;;;9.00;4.47;;;;;;;18.34;72.52;102066.31;5002230;28;20058;-73
2023/05/13 08:30:08;;;;;;;10.85;4.68;;;;;;;18.74;71.46;102070.75;5006217;28;20455;-73
2023/05/13 08:32:34;;;;;;;7.00;4.40;;;;;;;19.10;68.25;102065.00;4993946;28;20506;-73
2023/05/13 08:35:01;;;;;;;6.40;4.05;;;;;;;19.51;64.87;102067.47;4988138;28;20413;-73
2023/05/13 08:37:27;;;;;;;7.22;4.30;;;;;;;19.86;64.65;102073.25;4983348;28;20144;-74
2023/05/13 08:39:55;;;;;;;5.97;4.13;;;;;;;20.20;62.02;102068.50;5007846;28;20053;-73
2023/05/13 08:42:24;;;;;;;6.65;3.97;;;;;;;20.58;61.87;102068.47;5009778;28;20116;-73
2023/05/13 08:44:53;;;;;;;4.85;3.80;;;;;;;20.92;58.65;102060.78;4987983;28;20064;-73
2023/05/13 08:47:43;;;;;;;5.93;4.15;;;;;;;21.28;58.77;102061.84;5001782;28;20081;-73
2023/05/13 08:50:11;;;;;;;6.88;4.43;;;;;;;21.58;58.83;102062.63;4995152;28;20140;-73
2023/05/13 08:52:38;;;;;;;9.43;4.25;;;;;;;21.84;56.68;102063.91;4995267;28;20358;-73
2023/05/13 08:55:07;;;;;;;8.90;4.25;;;;;;;22.08;55.23;102052.00;4996561;28;20052;-73
2023/05/13 08:57:33;;;;;;;;;;;;;;;22.33;56.87;102062.31;4990373;28;20049;-73
2023/05/13 08:59:59;;;;;;;6.60;4.03;;;;;;;22.57;55.62;102058.34;4986515;28;20277;-73
2023/05/13 09:02:26;;;;;;;8.30;4.53;;;;;;;22.80;55.75;102066.09;4978061;28;20060;-73
2023/05/13 09:04:54;;;;;;;12.80;4.82;;;;;;;22.98;55.37;102060.22;5001076;28;20045;-73
2023/05/13 09:07:21;;;;;;;8.55;4.40;;;;;;;23.17;56.45;102048.81;4997321;28;20057;-74
2023/05/13 09:09:48;;;;;;;11.15;4.68;;;;;;;23.36;53.51;102057.91;5005862;28;20046;-73
2023/05/13 09:12:42;;;;;;;7.47;4.40;;;;;;;23.60;53.02;102058.38;5000080;28;20054;-73
2023/05/13 09:15:11;;;;;;;7.20;4.50;;;;;;;23.77;52.76;102061.50;4993383;28;20068;-74
2023/05/13 09:17:46;;;;;;;7.93;4.78;;;;;;;23.87;52.28;102062.78;4997771;28;20109;-74
2023/05/13 09:20:15;;;;;;;7.65;5.18;;;;;;;23.96;52.32;102055.38;4981940;28;20071;-73
2023/05/13 09:22:46;;;;;;;7.28;5.03;;;;;;;24.12;52.66;102062.16;4989811;28;20224;-74
2023/05/13 09:25:15;;;;;;;7.40;4.57;;;;;;;24.20;51.79;102067.31;4989235;28;20108;-73
2023/05/13 09:27:51;;;;;;;6.30;4.80;;;;;;;24.38;51.04;102055.94;4988997;28;20053;-74
2023/05/13 09:30:21;;;;;;;10.00;5.13;;;;;;;24.56;51.21;102065.22;4989540;28;20093;-74
2023/05/13 09:33:11;;;;;;;6.22;4.90;;;;;;;24.71;49.52;102057.78;4979931;28;20767;-74
2023/05/13 09:35:42;;;;;;;6.93;4.57;;;;;;;24.93;50.56;102057.50;4990377;28;20081;-75
2023/05/13 09:38:14;;;;;;;7.68;4.80;;;;;;;25.00;49.69;102059.13;5002742;28;20100;-74
2023/05/13 09:40:49;;;;;;;6.93;4.00;;;;;;;25.07;49.10;102051.06;5000729;28;20085;-73
2023/05/13 09:43:18;;;;;;;8.95;4.47;;;;;;;25.09;47.95;102048.97;4994519;28;20249;-73
2023/05/13 09:45:44;;;;;;;6.63;3.80;;;;;;;25.24;47.62;102046.03;4999729;28;20053;-74
2023/05/13 09:48:13;;;;;;;6.20;3.83;;;;;;;25.36;46.49;102043.50;4997159;28;20819;-74
2023/05/13 09:50:50;;;;;;;6.18;4.22;;;;;;;25.51;48.93;102045.88;5003559;28;20061;-73
2023/05/13 09:53:17;;;;;;;6.77;4.10;;;;;;;25.59;47.56;102038.38;4999610;28;20069;-73
2023/05/13 09:55:48;;;;;;;6.45;3.85;;;;;;;25.73;48.81;102040.97;5000530;28;20157;-74
2023/05/13 09:58:15;;;;;;;5.18;3.65;;;;;;;25.80;45.57;102036.38;4984009;28;20058;-74
2023/05/13 10:00:42;;;;;;;5.43;4.03;;;;;;;25.88;45.09;102029.91;4979480;28;20050;-74
2023/05/13 10:03:10;;;;;;;5.40;3.50;;;;;;;26.05;46.63;102031.03;4999344;28;20042;-74
2023/05/13 10:05:40;;;;;;;8.77;3.83;;;;;;;26.12;45.58;102026.41;4998913;28;20057;-74
2023/05/13 10:08:12;;;;;;;5.25;3.35;;;;;;;26.33;46.66;102021.69;4989230;28;20046;-73
2023/05/13 10:10:41;;;;;;;5.70;3.40;;;;;;;26.33;42.63;102021.69;5002558;28;20058;-74
2023/05/13 10:13:11;;;;;;;8.45;3.30;;;;;;;26.44;41.99;102021.75;4991258;28;20057;-74
2023/05/13 10:15:49;;;;;;;5.43;3.03;;;;;;;26.49;41.89;102022.94;5021623;28;20060;-75
2023/05/13 10:18:17;;;;;;;5.57;3.75;;;;;;;26.53;44.25;102024.97;5018903;28;20077;-72
2023/05/13 10:20:44;;;;;;;6.03;3.30;;;;;;;26.52;41.42;102017.09;5015162;28;20154;-73
2023/05/13 10:23:11;;;;;;;198.05;33.25;;;;;;;26.62;42.12;102020.97;5006603;28;20651;-75
2023/05/13 10:25:38;;;;;;;6.77;3.40;;;;;;;26.73;42.28;102024.75;5014406;28;20125;-75
2023/05/13 10:28:05;;;;;;;17.48;5.45;;;;;;;26.82;42.34;102015.34;4999022;28;20061;-74
2023/05/13 10:30:34;;;;;;;4.97;3.58;;;;;;;26.86;41.72;102013.03;5011545;28;20475;-73
2023/05/13 10:33:02;;;;;;;8.88;4.35;;;;;;;26.85;42.85;102018.63;4990212;28;21086;-73
2023/05/13 10:35:35;;;;;;;7.40;4.00;;;;;;;26.98;42.51;102005.00;4999259;28;20693;-74
2023/05/13 10:38:16;;;;;;;7.18;3.28;;;;;;;27.01;42.88;102013.44;5009920;28;20049;-74
2023/05/13 10:41:12;;;;;;;7.35;3.55;;;;;;;27.13;41.00;102008.09;4999971;28;20060;-75
2023/05/13 10:43:39;;;;;;;9.07;3.50;;;;;;;27.07;40.98;102005.47;4969839;28;20576;-73
2023/05/13 10:46:10;;;;;;;6.30;3.50;;;;;;;27.09;41.51;102015.00;4982926;28;20305;-73
2023/05/13 10:48:45;;;;;;;8.75;3.55;;;;;;;27.21;40.68;102015.03;5001051;28;20105;-74
2023/05/13 10:51:14;;;;;;;12.65;3.17;;;;;;;27.27;40.00;102013.34;4995314;28;20057;-74
2023/05/13 10:53:48;;;;;;;9.55;3.40;;;;;;;27.34;41.36;102006.78;5010118;28;20486;-74
2023/05/13 10:56:18;;;;;;;8.85;4.00;;;;;;;27.44;41.75;102003.53;4981737;28;20396;-73
2023/05/13 10:59:00;;;;;;;5.35;3.50;;;;;;;27.55;41.77;102004.63;4997436;28;20149;-73
2023/05/13 11:01:28;;;;;;;9.00;3.72;;;;;;;27.52;41.42;102010.44;5001481;28;20089;-73
2023/05/13 11:04:00;;;;;;;5.22;3.72;;;;;;;27.58;40.61;101999.59;5002207;28;20054;-74
2023/05/13 11:06:41;;;;;;;6.15;3.63;;;;;;;27.67;41.44;102007.31;5007410;28;20054;-73
2023/05/13 11:09:28;;;;;;;6.57;4.13;;;;;;;27.72;42.13;102007.47;4990289;28;20062;-74
2023/05/13 11:11:57;;;;;;;8.40;4.13;;;;;;;27.79;41.30;102010.84;4986514;28;20054;-73
2023/05/13 11:14:25;;;;;;;7.68;4.00;;;;;;;27.81;41.28;102001.50;4999421;28;20482;-74
2023/05/13 11:17:05;;;;;;;5.47;3.88;;;;;;;27.78;41.01;102003.84;4996591;28;20085;-73
2023/05/13 11:19:46;;;;;;;7.50;4.03;;;;;;;27.86;39.92;101999.97;4990424;28;20049;-73
2023/05/13 11:22:16;;;;;;;6.55;3.40;;;;;;;27.92;38.66;101993.66;4987127;28;20053;-74
2023/05/13 11:25:04;;;;;;;7.85;3.72;;;;;;;27.94;39.61;101992.38;5002705;28;20481;-74
2023/05/13 11:27:39;;;;;;;5.97;3.88;;;;;;;28.11;38.72;101994.34;4994611;28;20103;-74